METAR de aeropuertos de Murcia y cercanos

 

LEMI - Murcia/Corvera
Actualización: 30/01/2023 01:30
Partly Cloudy
Partly Cloudy
 Viento del N
Viento: N 11 km/h
Temperatura: 6°C
Wind Chill: 4°C
Rocío: 1°C
Humedad: 71%
Barómetro: 1027 hPa
Nubosidad: Partly Cloudy
Visibilidad: 10 km
Cloud details: Few Clouds 1128 m
Partly Cloudy 1829 m
2023/01/30 00:30 LEMI 300030Z AUTO 35006KT 9999 FEW037 SCT060 06/01 Q1027
LERI - Murcia/Alcantarilla
Actualización: 29/01/2023 19:00
NO Actualizado
Mostly Cloudy
Mostly Cloudy
 Viento del E
Viento: E 15 km/h
Temperatura: 10°C
Wind Chill: 8°C
Rocío: 3°C
Humedad: 62%
Barómetro: 1025 hPa
Nubosidad: Mostly Cloudy
Visibilidad: 10 km
Cloud details: Few Clouds 853 m
Mostly Cloudy 1463 m
2023/01/29 18:00 LERI 291800Z 08008KT 9999 FEW028 BKN048 10/03 Q1025 NOSIG
LELC - Murcia/San Javier
Actualización: 30/01/2023 01:30
Few Clouds
Few Clouds
 Viento del N
Viento: N 11 km/h
Temperatura: 9°C
Wind Chill: 7°C
Rocío: 5°C
Humedad: 76%
Barómetro: 1027 hPa
Nubosidad: Few Clouds
Visibilidad: 10 km
Cloud details: Few Clouds 1524 m
2023/01/30 00:30 LELC 300030Z AUTO 35006KT 9999 FEW050 09/05 Q1027
 
LEAL - Alicante
Actualización: 30/01/2023 01:30
Few Clouds
Few Clouds
 Viento del N
Viento: N 7 km/h
Temperatura: 7°C
Wind Chill: 6°C
Rocío: 3°C
Humedad: 76%
Barómetro: 1027 hPa
Nubosidad: Few Clouds
Visibilidad: 10 km
Cloud details: Few Clouds 914 m
2023/01/30 00:30 LEAL 300030Z 35004KT 9999 FEW030 07/03 Q1027 NOSIG
LEAB - Albacete
Actualización: 30/01/2023 01:30
Mostly Cloudy
Mostly Cloudy
 Viento del ESE
Viento: ESE 9 km/h
Temperatura: 1°C
Wind Chill: -2°C
Rocío: -1°C
Humedad: 87%
Barómetro: 1027 hPa
Nubosidad: Mostly Cloudy
Visibilidad: 10 km
Cloud details: Mostly Cloudy 853 m
2023/01/30 00:30 LEAB 300030Z 12005KT 9999 BKN028 01/M01 Q1027 NOSIG
LEAM - Almería
Actualización: 30/01/2023 01:30
Partly Cloudy
Partly Cloudy
 Viento del E
Viento: E 13 km/h
Temperatura: 8°C
Wind Chill: 6°C
Rocío: 4°C
Humedad: 76%
Barómetro: 1026 hPa
Nubosidad: Partly Cloudy
Visibilidad: 10 km
Cloud details: Few Clouds 1433 m
Partly Cloudy 2743 m
2023/01/30 00:30 LEAM 300030Z AUTO 08007KT 9999 FEW047 SCT090 08/04 Q1026

La estación de MeteoMurcia.com, publica sus datos en los siguientes proyectos:

Weather Underground PWS IMURCIAP2 Meteoclimatic www.awekas.at

Web Analytics

Clicky